University, Florida
Current Conditions -  °F | °C
As of 2:53 PM on Monday 26 Jan 2015 (Local Time) from KHWO Reporting Station
Few Clouds Few Clouds  
Wind Chill: 74°   Ceiling: Unl
Heat Index: 74°   Visibility: 10mi
Dew Point: 50°   Wind: 24mph
Humidity: 43%   Direction: 270°W
Pressure: 29.86"   Gusts: 32mph
Location:  26.0272°N, 80.2445°W
Report Text: KHWO 261953Z 27021G28KT 10SM FEW050 23/10 A2986 RMK AO2 PK WND 27030/1942 SLP112 T02330100
Loading
Personal Weather Stations






























Interactive Weather Map New forecast layout! Learn more

10-Day Weather Forecast

Advertisements
Track Severe Weather on mobile